RYR554 LTAI-LYTV
Flight info
| Callsign | RYR554 |
|---|---|
| Flight time | 2h 1m |
| Altitude | 32000 |
| Route | LORKO1F/36R LORKO UW79 DAL UN136 RDS UL995 RIPLI UN137 SKP UL617 TSL UN130 TALAS/N0394F200 N130 MAVAR/N0383F180 Y400 RETRA L604 POD |
| Aircraft | B38M/M-SDE1FGHILORVWXY/HB1 |
Departure
| Time | 2026-05-04 12:57 |
|---|---|
| Airport | Antalya International Airport (LTAI) |
Arrival
| Time | 2026-05-04 14:58 |
|---|---|
| Airport | Tivat Airport (LYTV) |
| Time | Latitude | Longitude | Altitude | Speed | Heading |
|---|---|---|---|---|---|
| 2026-05-04 12:29 | 36.89700 | 30.80162 | 180 ft | 0 kts | 350° |
| 2026-05-04 12:48 | 36.89689 | 30.80164 | 180 ft | 2 kts | 350° |
| 2026-05-04 12:48 | 36.89674 | 30.80167 | 180 ft | 2 kts | 351° |
| 2026-05-04 12:48 | 36.89659 | 30.80170 | 180 ft | 2 kts | 351° |
| 2026-05-04 12:49 | 36.89644 | 30.80173 | 180 ft | 2 kts | 350° |
| 2026-05-04 12:49 | 36.89630 | 30.80176 | 180 ft | 2 kts | 350° |
| 2026-05-04 12:49 | 36.89616 | 30.80179 | 180 ft | 2 kts | 17° |
| 2026-05-04 12:49 | 36.89605 | 30.80167 | 180 ft | 2 kts | 72° |
| 2026-05-04 12:50 | 36.89605 | 30.80150 | 179 ft | 2 kts | 107° |
| 2026-05-04 12:50 | 36.89607 | 30.80137 | 179 ft | 0 kts | 96° |
| 2026-05-04 12:50 | 36.89608 | 30.80134 | 179 ft | 0 kts | 95° |
| 2026-05-04 12:51 | 36.89608 | 30.80135 | 179 ft | 0 kts | 96° |
| 2026-05-04 12:52 | 36.89605 | 30.80166 | 180 ft | 7 kts | 96° |
| 2026-05-04 12:52 | 36.89594 | 30.80279 | 180 ft | 18 kts | 97° |
| 2026-05-04 12:52 | 36.89577 | 30.80481 | 177 ft | 25 kts | 97° |
| 2026-05-04 12:52 | 36.89554 | 30.80655 | 173 ft | 13 kts | 135° |
| 2026-05-04 12:53 | 36.89460 | 30.80672 | 173 ft | 17 kts | 187° |
| 2026-05-04 12:53 | 36.89299 | 30.80651 | 174 ft | 28 kts | 186° |
| 2026-05-04 12:53 | 36.89060 | 30.80618 | 174 ft | 39 kts | 186° |
| 2026-05-04 12:53 | 36.88777 | 30.80576 | 174 ft | 38 kts | 187° |
| 2026-05-04 12:54 | 36.88530 | 30.80544 | 173 ft | 33 kts | 187° |
| 2026-05-04 12:54 | 36.88329 | 30.80512 | 168 ft | 24 kts | 182° |
| 2026-05-04 12:54 | 36.88184 | 30.80496 | 167 ft | 18 kts | 183° |
| 2026-05-04 12:54 | 36.88113 | 30.80572 | 164 ft | 12 kts | 97° |
| 2026-05-04 12:55 | 36.88110 | 30.80604 | 163 ft | 0 kts | 97° |
| 2026-05-04 12:55 | 36.88106 | 30.80638 | 163 ft | 10 kts | 96° |
| 2026-05-04 12:55 | 36.88140 | 30.80724 | 163 ft | 9 kts | 19° |
| 2026-05-04 12:56 | 36.88177 | 30.80734 | 164 ft | 0 kts | 7° |
| 2026-05-04 12:56 | 36.88195 | 30.80737 | 164 ft | 18 kts | 7° |
| 2026-05-04 12:56 | 36.88538 | 30.80784 | 171 ft | 79 kts | 6° |
| 2026-05-04 12:56 | 36.89276 | 30.80887 | 173 ft | 132 kts | 5° |
| 2026-05-04 12:57 | 36.90339 | 30.81052 | 245 ft | 168 kts | 1° |
| 2026-05-04 12:57 | 36.91459 | 30.81217 | 923 ft | 161 kts | 360° |
| 2026-05-04 12:57 | 36.92603 | 30.81427 | 1336 ft | 181 kts | 13° |
| 2026-05-04 12:57 | 36.93804 | 30.82171 | 1709 ft | 205 kts | 25° |
| 2026-05-04 12:58 | 36.95105 | 30.83035 | 2173 ft | 216 kts | 20° |
| 2026-05-04 12:58 | 36.96463 | 30.83908 | 2593 ft | 234 kts | 29° |
| 2026-05-04 12:58 | 36.97734 | 30.85385 | 2857 ft | 263 kts | 51° |
| 2026-05-04 12:58 | 36.98492 | 30.87498 | 3411 ft | 277 kts | 76° |
| 2026-05-04 12:59 | 36.98603 | 30.89908 | 4071 ft | 284 kts | 92° |
| 2026-05-04 12:59 | 36.98392 | 30.92402 | 4754 ft | 288 kts | 96° |
| 2026-05-04 12:59 | 36.98135 | 30.94859 | 5425 ft | 291 kts | 96° |
| 2026-05-04 12:59 | 36.97897 | 30.97376 | 6101 ft | 293 kts | 96° |
| 2026-05-04 13:00 | 36.97683 | 30.99831 | 6751 ft | 295 kts | 96° |
| 2026-05-04 13:00 | 36.97408 | 31.02373 | 7400 ft | 298 kts | 104° |
| 2026-05-04 13:00 | 36.96601 | 31.04760 | 8042 ft | 298 kts | 125° |
| 2026-05-04 13:00 | 36.95230 | 31.06670 | 8688 ft | 296 kts | 144° |
| 2026-05-04 13:01 | 36.93476 | 31.07898 | 9294 ft | 294 kts | 164° |
| 2026-05-04 13:01 | 36.91471 | 31.08345 | 9910 ft | 291 kts | 181° |
| 2026-05-04 13:01 | 36.89441 | 31.08233 | 10302 ft | 300 kts | 188° |
| 2026-05-04 13:01 | 36.87268 | 31.07902 | 10358 ft | 321 kts | 189° |
| 2026-05-04 13:02 | 36.84994 | 31.07536 | 10487 ft | 338 kts | 189° |
| 2026-05-04 13:02 | 36.82640 | 31.07185 | 10958 ft | 344 kts | 189° |
| 2026-05-04 13:02 | 36.80240 | 31.06842 | 11493 ft | 347 kts | 188° |
| 2026-05-04 13:02 | 36.77865 | 31.06509 | 12032 ft | 349 kts | 188° |
| 2026-05-04 13:03 | 36.75441 | 31.06159 | 12554 ft | 351 kts | 188° |
| 2026-05-04 13:03 | 36.73022 | 31.05808 | 13069 ft | 354 kts | 189° |
| 2026-05-04 13:03 | 36.70556 | 31.05451 | 13575 ft | 356 kts | 189° |
| 2026-05-04 13:03 | 36.68115 | 31.05096 | 14064 ft | 358 kts | 190° |
| 2026-05-04 13:04 | 36.65689 | 31.04350 | 14512 ft | 358 kts | 204° |
| 2026-05-04 13:04 | 36.63493 | 31.02862 | 15027 ft | 355 kts | 218° |
| 2026-05-04 13:04 | 36.61688 | 31.00796 | 15471 ft | 355 kts | 231° |
| 2026-05-04 13:04 | 36.60327 | 30.98221 | 15933 ft | 355 kts | 245° |
| 2026-05-04 13:05 | 36.59564 | 30.95350 | 16370 ft | 355 kts | 260° |
| 2026-05-04 13:05 | 36.59368 | 30.92268 | 16803 ft | 357 kts | 270° |
| 2026-05-04 13:05 | 36.59508 | 30.89155 | 17202 ft | 360 kts | 274° |
| 2026-05-04 13:05 | 36.59761 | 30.86062 | 17598 ft | 363 kts | 275° |
| 2026-05-04 13:06 | 36.60037 | 30.82933 | 17983 ft | 365 kts | 275° |
| 2026-05-04 13:06 | 36.60310 | 30.79812 | 18368 ft | 367 kts | 275° |
| 2026-05-04 13:06 | 36.60581 | 30.76619 | 18743 ft | 369 kts | 275° |
| 2026-05-04 13:06 | 36.60843 | 30.73467 | 19109 ft | 371 kts | 275° |
| 2026-05-04 13:07 | 36.61096 | 30.70319 | 19463 ft | 373 kts | 275° |
| 2026-05-04 13:07 | 36.61343 | 30.67243 | 19796 ft | 375 kts | 275° |
| 2026-05-04 13:07 | 36.61595 | 30.64096 | 20127 ft | 377 kts | 275° |
| 2026-05-04 13:07 | 36.61845 | 30.60978 | 20453 ft | 379 kts | 275° |
| 2026-05-04 13:08 | 36.62101 | 30.57796 | 20767 ft | 381 kts | 275° |
| 2026-05-04 13:08 | 36.62364 | 30.54516 | 21086 ft | 383 kts | 275° |
| 2026-05-04 13:08 | 36.62631 | 30.51184 | 21401 ft | 385 kts | 275° |
| 2026-05-04 13:08 | 36.62895 | 30.47883 | 21713 ft | 387 kts | 275° |
| 2026-05-04 13:09 | 36.63160 | 30.44556 | 22002 ft | 389 kts | 275° |
| 2026-05-04 13:09 | 36.63427 | 30.41200 | 22306 ft | 390 kts | 275° |
| 2026-05-04 13:09 | 36.63696 | 30.37800 | 22601 ft | 392 kts | 275° |
| 2026-05-04 13:09 | 36.63963 | 30.34418 | 22881 ft | 394 kts | 274° |
| 2026-05-04 13:10 | 36.64367 | 30.31038 | 23147 ft | 397 kts | 281° |
| 2026-05-04 13:10 | 36.65182 | 30.27744 | 23415 ft | 401 kts | 290° |
| 2026-05-04 13:10 | 36.66405 | 30.24648 | 23700 ft | 405 kts | 298° |
| 2026-05-04 13:10 | 36.67955 | 30.21692 | 23971 ft | 408 kts | 303° |
| 2026-05-04 13:11 | 36.69668 | 30.18905 | 24216 ft | 411 kts | 306° |
| 2026-05-04 13:11 | 36.71471 | 30.16203 | 24442 ft | 414 kts | 308° |
| 2026-05-04 13:11 | 36.73315 | 30.13562 | 24703 ft | 415 kts | 309° |
| 2026-05-04 13:11 | 36.75201 | 30.10929 | 24932 ft | 418 kts | 309° |
| 2026-05-04 13:12 | 36.77099 | 30.08323 | 25159 ft | 419 kts | 309° |
| 2026-05-04 13:12 | 36.78978 | 30.05614 | 25378 ft | 419 kts | 303° |
| 2026-05-04 13:12 | 36.80428 | 30.02587 | 25616 ft | 417 kts | 293° |
| 2026-05-04 13:12 | 36.81496 | 29.99234 | 25845 ft | 415 kts | 284° |
| 2026-05-04 13:13 | 36.82107 | 29.95774 | 26035 ft | 415 kts | 275° |
| 2026-05-04 13:13 | 36.82257 | 29.92181 | 26267 ft | 414 kts | 266° |
| 2026-05-04 13:13 | 36.81989 | 29.88595 | 26491 ft | 414 kts | 262° |
| 2026-05-04 13:13 | 36.81627 | 29.85058 | 26686 ft | 416 kts | 261° |
| 2026-05-04 13:14 | 36.81254 | 29.81539 | 26898 ft | 417 kts | 261° |
| 2026-05-04 13:14 | 36.80873 | 29.77980 | 27109 ft | 418 kts | 261° |
| 2026-05-04 13:14 | 36.80488 | 29.74434 | 27300 ft | 420 kts | 261° |
| 2026-05-04 13:14 | 36.80076 | 29.70856 | 27483 ft | 421 kts | 261° |
| 2026-05-04 13:15 | 36.79651 | 29.67213 | 27677 ft | 422 kts | 261° |
| 2026-05-04 13:15 | 36.79227 | 29.63574 | 27870 ft | 424 kts | 261° |
| 2026-05-04 13:15 | 36.78802 | 29.59920 | 28045 ft | 425 kts | 261° |
| 2026-05-04 13:15 | 36.78383 | 29.56319 | 28230 ft | 426 kts | 261° |
| 2026-05-04 13:16 | 36.77959 | 29.52676 | 28398 ft | 427 kts | 261° |
| 2026-05-04 13:16 | 36.77536 | 29.49047 | 28570 ft | 429 kts | 261° |
| 2026-05-04 13:16 | 36.77104 | 29.45346 | 28736 ft | 430 kts | 261° |
| 2026-05-04 13:16 | 36.76671 | 29.41646 | 28905 ft | 431 kts | 261° |
| 2026-05-04 13:17 | 36.76234 | 29.37947 | 29070 ft | 432 kts | 260° |
| 2026-05-04 13:17 | 36.75784 | 29.34195 | 29237 ft | 433 kts | 260° |
| 2026-05-04 13:17 | 36.75342 | 29.30513 | 29395 ft | 434 kts | 260° |
| 2026-05-04 13:17 | 36.74900 | 29.26827 | 29532 ft | 436 kts | 260° |
| 2026-05-04 13:18 | 36.74451 | 29.23085 | 29698 ft | 436 kts | 260° |
| 2026-05-04 13:18 | 36.74003 | 29.19339 | 29911 ft | 436 kts | 260° |
| 2026-05-04 13:18 | 36.73558 | 29.15635 | 30104 ft | 436 kts | 260° |
| 2026-05-04 13:18 | 36.73112 | 29.11914 | 30300 ft | 435 kts | 260° |
| 2026-05-04 13:19 | 36.72664 | 29.08182 | 30487 ft | 435 kts | 260° |
| 2026-05-04 13:19 | 36.72365 | 29.05696 | 30634 ft | 435 kts | 260° |
| 2026-05-04 13:19 | 36.71765 | 29.00719 | 30899 ft | 434 kts | 260° |
| 2026-05-04 13:19 | 36.71319 | 28.97034 | 31121 ft | 433 kts | 260° |
| 2026-05-04 13:20 | 36.70873 | 28.93347 | 31331 ft | 432 kts | 260° |
| 2026-05-04 13:20 | 36.70405 | 28.89618 | 31530 ft | 431 kts | 259° |
| 2026-05-04 13:20 | 36.69757 | 28.86012 | 31713 ft | 430 kts | 255° |
| 2026-05-04 13:20 | 36.68930 | 28.82393 | 31882 ft | 430 kts | 253° |
| 2026-05-04 13:21 | 36.68036 | 28.78879 | 31942 ft | 431 kts | 251° |
| 2026-05-04 13:21 | 36.65745 | 28.71938 | 31940 ft | 435 kts | 245° |
| 2026-05-04 13:22 | 36.62855 | 28.65271 | 31939 ft | 435 kts | 241° |
| 2026-05-04 13:22 | 36.59864 | 28.58772 | 31939 ft | 434 kts | 241° |
| 2026-05-04 13:23 | 36.56821 | 28.52216 | 31943 ft | 434 kts | 241° |
| 2026-05-04 13:23 | 36.53762 | 28.45750 | 31958 ft | 435 kts | 239° |
| 2026-05-04 13:24 | 36.50447 | 28.39429 | 31973 ft | 435 kts | 238° |
| 2026-05-04 13:24 | 36.47147 | 28.33172 | 31987 ft | 435 kts | 238° |
| 2026-05-04 13:25 | 36.42209 | 28.23780 | 31993 ft | 435 kts | 238° |
| 2026-05-04 13:25 | 36.38902 | 28.17446 | 31991 ft | 434 kts | 240° |
| 2026-05-04 13:26 | 36.36809 | 28.10511 | 31991 ft | 433 kts | 261° |
| 2026-05-04 13:26 | 36.36666 | 28.06772 | 31995 ft | 433 kts | 274° |
| 2026-05-04 13:26 | 36.37128 | 28.03097 | 31998 ft | 435 kts | 282° |
| 2026-05-04 13:27 | 36.38949 | 27.95926 | 31992 ft | 437 kts | 289° |
| 2026-05-04 13:27 | 36.41181 | 27.88918 | 31993 ft | 436 kts | 291° |
| 2026-05-04 13:28 | 36.43547 | 27.81959 | 31992 ft | 436 kts | 292° |
| 2026-05-04 13:28 | 36.45948 | 27.75085 | 31993 ft | 437 kts | 292° |
| 2026-05-04 13:29 | 36.48389 | 27.68138 | 31993 ft | 437 kts | 292° |
| 2026-05-04 13:29 | 36.50811 | 27.61252 | 31999 ft | 437 kts | 292° |
| 2026-05-04 13:30 | 36.53249 | 27.54348 | 32014 ft | 436 kts | 292° |
| 2026-05-04 13:30 | 36.55690 | 27.47440 | 32030 ft | 437 kts | 292° |
| 2026-05-04 13:31 | 36.58143 | 27.40495 | 32041 ft | 437 kts | 292° |
| 2026-05-04 13:31 | 36.60599 | 27.33533 | 32047 ft | 437 kts | 292° |
| 2026-05-04 13:32 | 36.63053 | 27.26561 | 32047 ft | 437 kts | 292° |
| 2026-05-04 13:32 | 36.65488 | 27.19629 | 32047 ft | 436 kts | 292° |
| 2026-05-04 13:33 | 36.67918 | 27.12699 | 32047 ft | 436 kts | 292° |
| 2026-05-04 13:33 | 36.70322 | 27.05743 | 32047 ft | 435 kts | 291° |
| 2026-05-04 13:34 | 36.72706 | 26.98844 | 32047 ft | 433 kts | 291° |
| 2026-05-04 13:34 | 36.75083 | 26.91974 | 32047 ft | 432 kts | 291° |
| 2026-05-04 13:35 | 36.78643 | 26.81684 | 32047 ft | 430 kts | 291° |
| 2026-05-04 13:36 | 36.81012 | 26.74827 | 32047 ft | 431 kts | 291° |
| 2026-05-04 13:36 | 36.83383 | 26.67954 | 32047 ft | 431 kts | 291° |
| 2026-05-04 13:37 | 36.85738 | 26.61061 | 32047 ft | 431 kts | 291° |
| 2026-05-04 13:37 | 36.88076 | 26.54219 | 32047 ft | 431 kts | 291° |
| 2026-05-04 13:38 | 36.90435 | 26.47304 | 32047 ft | 431 kts | 291° |
| 2026-05-04 13:38 | 36.92779 | 26.40402 | 32046 ft | 430 kts | 291° |
| 2026-05-04 13:39 | 36.95136 | 26.33461 | 32063 ft | 430 kts | 291° |
| 2026-05-04 13:39 | 36.97446 | 26.26645 | 32086 ft | 430 kts | 291° |
| 2026-05-04 13:40 | 36.99624 | 26.20211 | 32108 ft | 431 kts | 291° |
| 2026-05-04 13:41 | 37.03753 | 26.08027 | 32128 ft | 432 kts | 291° |
| 2026-05-04 13:41 | 37.05642 | 26.02451 | 32128 ft | 432 kts | 291° |
| 2026-05-04 13:42 | 37.08429 | 25.94212 | 32128 ft | 432 kts | 291° |
| 2026-05-04 13:42 | 37.10789 | 25.87216 | 32128 ft | 433 kts | 291° |
| 2026-05-04 13:43 | 37.13138 | 25.80245 | 32128 ft | 433 kts | 291° |
| 2026-05-04 13:43 | 37.15473 | 25.73297 | 32124 ft | 433 kts | 291° |
| 2026-05-04 13:44 | 37.17810 | 25.66326 | 32119 ft | 433 kts | 291° |
| 2026-05-04 13:44 | 37.20143 | 25.59353 | 32115 ft | 433 kts | 291° |
| 2026-05-04 13:45 | 37.22452 | 25.52436 | 32111 ft | 433 kts | 291° |
| 2026-05-04 13:45 | 37.24726 | 25.45425 | 32107 ft | 433 kts | 291° |
| 2026-05-04 13:46 | 37.27775 | 25.38948 | 32105 ft | 437 kts | 307° |
| 2026-05-04 13:46 | 37.32088 | 25.33485 | 32102 ft | 440 kts | 316° |
| 2026-05-04 13:47 | 37.36830 | 25.28642 | 32101 ft | 441 kts | 319° |
| 2026-05-04 13:47 | 37.41729 | 25.24007 | 32101 ft | 442 kts | 321° |
| 2026-05-04 13:48 | 37.46683 | 25.19468 | 32100 ft | 442 kts | 321° |
| 2026-05-04 13:48 | 37.51691 | 25.14942 | 32105 ft | 444 kts | 321° |
| 2026-05-04 13:49 | 37.56708 | 25.10432 | 32110 ft | 446 kts | 321° |
| 2026-05-04 13:49 | 37.61790 | 25.05873 | 32115 ft | 449 kts | 321° |
| 2026-05-04 13:50 | 37.66868 | 25.01317 | 32121 ft | 450 kts | 321° |
| 2026-05-04 13:50 | 37.71968 | 24.96739 | 32126 ft | 452 kts | 321° |
| 2026-05-04 13:51 | 37.77112 | 24.92116 | 32128 ft | 454 kts | 321° |
| 2026-05-04 13:51 | 37.82225 | 24.87516 | 32127 ft | 453 kts | 321° |
| 2026-05-04 13:52 | 37.89907 | 24.80590 | 32128 ft | 453 kts | 321° |
| 2026-05-04 13:53 | 37.95057 | 24.75942 | 32128 ft | 453 kts | 321° |
| 2026-05-04 13:53 | 38.00194 | 24.71294 | 32128 ft | 453 kts | 321° |
| 2026-05-04 13:54 | 38.07899 | 24.64304 | 32127 ft | 453 kts | 321° |
| 2026-05-04 13:55 | 38.15694 | 24.57434 | 32128 ft | 453 kts | 323° |
| 2026-05-04 13:55 | 38.23570 | 24.50618 | 32128 ft | 454 kts | 323° |
| 2026-05-04 13:56 | 38.28789 | 24.46092 | 32128 ft | 454 kts | 323° |
| 2026-05-04 13:57 | 38.36566 | 24.39333 | 32128 ft | 454 kts | 323° |
| 2026-05-04 13:58 | 38.46988 | 24.30246 | 32128 ft | 453 kts | 322° |
| 2026-05-04 13:58 | 38.54779 | 24.23432 | 32128 ft | 453 kts | 322° |
| 2026-05-04 13:59 | 38.59978 | 24.18876 | 32128 ft | 453 kts | 322° |
| 2026-05-04 14:00 | 38.67760 | 24.12038 | 32128 ft | 453 kts | 322° |
| 2026-05-04 14:00 | 38.75529 | 24.05195 | 32128 ft | 453 kts | 322° |
| 2026-05-04 14:01 | 38.80716 | 24.00617 | 32128 ft | 453 kts | 322° |
| 2026-05-04 14:02 | 38.88512 | 23.93718 | 32128 ft | 453 kts | 322° |
| 2026-05-04 14:02 | 38.93686 | 23.89129 | 32128 ft | 454 kts | 322° |
| 2026-05-04 14:03 | 38.98886 | 23.84509 | 32128 ft | 455 kts | 322° |
| 2026-05-04 14:03 | 39.04077 | 23.79889 | 32127 ft | 455 kts | 321° |
| 2026-05-04 14:04 | 39.11887 | 23.72921 | 32128 ft | 455 kts | 321° |
| 2026-05-04 14:04 | 39.17047 | 23.68307 | 32128 ft | 455 kts | 321° |
| 2026-05-04 14:05 | 39.24833 | 23.61329 | 32128 ft | 455 kts | 321° |
| 2026-05-04 14:06 | 39.30029 | 23.56662 | 32128 ft | 455 kts | 321° |
| 2026-05-04 14:06 | 39.35221 | 23.51989 | 32128 ft | 455 kts | 321° |
| 2026-05-04 14:07 | 39.40433 | 23.47290 | 32128 ft | 455 kts | 321° |
| 2026-05-04 14:07 | 39.45596 | 23.42626 | 32128 ft | 455 kts | 321° |
| 2026-05-04 14:08 | 39.50812 | 23.37905 | 32128 ft | 455 kts | 321° |
| 2026-05-04 14:08 | 39.55987 | 23.33213 | 32128 ft | 455 kts | 321° |
| 2026-05-04 14:09 | 39.63763 | 23.26144 | 32128 ft | 455 kts | 321° |
| 2026-05-04 14:10 | 39.71529 | 23.19064 | 32128 ft | 455 kts | 321° |
| 2026-05-04 14:10 | 39.76718 | 23.14322 | 32128 ft | 456 kts | 321° |
| 2026-05-04 14:11 | 39.81858 | 23.09617 | 32128 ft | 455 kts | 321° |
| 2026-05-04 14:11 | 39.89601 | 23.02512 | 32121 ft | 456 kts | 321° |
| 2026-05-04 14:12 | 39.94802 | 22.97728 | 32112 ft | 456 kts | 321° |
| 2026-05-04 14:13 | 40.02576 | 22.90561 | 32100 ft | 458 kts | 321° |
| 2026-05-04 14:13 | 40.07744 | 22.85786 | 32101 ft | 458 kts | 320° |
| 2026-05-04 14:14 | 40.12946 | 22.80971 | 32101 ft | 459 kts | 320° |
| 2026-05-04 14:14 | 40.20728 | 22.73749 | 32100 ft | 460 kts | 320° |
| 2026-05-04 14:15 | 40.31162 | 22.64034 | 32100 ft | 460 kts | 321° |
| 2026-05-04 14:16 | 40.38927 | 22.56783 | 32100 ft | 460 kts | 320° |
| 2026-05-04 14:17 | 40.46722 | 22.49483 | 32108 ft | 459 kts | 320° |
| 2026-05-04 14:18 | 40.54514 | 22.42163 | 32114 ft | 460 kts | 321° |
| 2026-05-04 14:19 | 40.64850 | 22.32419 | 32126 ft | 459 kts | 320° |
| 2026-05-04 14:19 | 40.70041 | 22.27512 | 32128 ft | 460 kts | 320° |
| 2026-05-04 14:20 | 40.75204 | 22.22620 | 32128 ft | 461 kts | 320° |
| 2026-05-04 14:20 | 40.80386 | 22.17704 | 32128 ft | 459 kts | 320° |
| 2026-05-04 14:21 | 40.88134 | 22.10334 | 32127 ft | 459 kts | 320° |
| 2026-05-04 14:21 | 40.93317 | 22.05394 | 32128 ft | 459 kts | 320° |
| 2026-05-04 14:22 | 40.98490 | 22.00454 | 32129 ft | 457 kts | 320° |
| 2026-05-04 14:22 | 41.03379 | 21.95353 | 32126 ft | 444 kts | 313° |
| 2026-05-04 14:23 | 41.09197 | 21.86033 | 32129 ft | 435 kts | 303° |
| 2026-05-04 14:24 | 41.12528 | 21.79353 | 32126 ft | 437 kts | 301° |
| 2026-05-04 14:24 | 41.15748 | 21.72501 | 32113 ft | 437 kts | 300° |
| 2026-05-04 14:25 | 41.18862 | 21.65660 | 32106 ft | 436 kts | 300° |
| 2026-05-04 14:25 | 41.23482 | 21.55260 | 32105 ft | 436 kts | 299° |
| 2026-05-04 14:26 | 41.26537 | 21.48288 | 32112 ft | 437 kts | 299° |
| 2026-05-04 14:26 | 41.29561 | 21.41335 | 32117 ft | 435 kts | 299° |
| 2026-05-04 14:27 | 41.32539 | 21.34451 | 32123 ft | 435 kts | 298° |
| 2026-05-04 14:27 | 41.35016 | 21.28702 | 32120 ft | 437 kts | 298° |
| 2026-05-04 14:28 | 41.38174 | 21.21359 | 32119 ft | 437 kts | 298° |
| 2026-05-04 14:28 | 41.41206 | 21.14288 | 32124 ft | 436 kts | 298° |
| 2026-05-04 14:29 | 41.47113 | 21.00194 | 32127 ft | 427 kts | 301° |
| 2026-05-04 14:30 | 41.50090 | 20.93292 | 32129 ft | 430 kts | 303° |
| 2026-05-04 14:31 | 41.54594 | 20.82799 | 32129 ft | 433 kts | 303° |
| 2026-05-04 14:32 | 41.60499 | 20.68867 | 32127 ft | 432 kts | 303° |
| 2026-05-04 14:32 | 41.63397 | 20.61997 | 32128 ft | 434 kts | 303° |
| 2026-05-04 14:33 | 41.66373 | 20.54929 | 32128 ft | 434 kts | 303° |
| 2026-05-04 14:33 | 41.69412 | 20.48006 | 32128 ft | 432 kts | 306° |
| 2026-05-04 14:34 | 41.72606 | 20.41252 | 32128 ft | 431 kts | 307° |
| 2026-05-04 14:34 | 41.75804 | 20.34512 | 32123 ft | 430 kts | 306° |
| 2026-05-04 14:35 | 41.78991 | 20.27786 | 32118 ft | 433 kts | 306° |
| 2026-05-04 14:35 | 41.82161 | 20.21079 | 31736 ft | 425 kts | 306° |
| 2026-05-04 14:35 | 41.83762 | 20.17686 | 30861 ft | 426 kts | 306° |
| 2026-05-04 14:36 | 41.85321 | 20.14382 | 30058 ft | 426 kts | 306° |
| 2026-05-04 14:36 | 41.86909 | 20.11018 | 29358 ft | 426 kts | 306° |
| 2026-05-04 14:36 | 41.88435 | 20.07776 | 28826 ft | 419 kts | 306° |
| 2026-05-04 14:36 | 41.89968 | 20.04519 | 28257 ft | 417 kts | 306° |
| 2026-05-04 14:37 | 41.91526 | 20.01204 | 27671 ft | 422 kts | 306° |
| 2026-05-04 14:37 | 41.93077 | 19.97896 | 27064 ft | 416 kts | 306° |
| 2026-05-04 14:37 | 41.94562 | 19.94727 | 26483 ft | 411 kts | 306° |
| 2026-05-04 14:37 | 41.96057 | 19.91531 | 25901 ft | 406 kts | 306° |
| 2026-05-04 14:38 | 41.97604 | 19.88231 | 25309 ft | 410 kts | 306° |
| 2026-05-04 14:38 | 41.99062 | 19.85117 | 24726 ft | 406 kts | 306° |
| 2026-05-04 14:38 | 42.00552 | 19.81927 | 24133 ft | 401 kts | 306° |
| 2026-05-04 14:38 | 42.02016 | 19.78789 | 23550 ft | 396 kts | 306° |
| 2026-05-04 14:39 | 42.03483 | 19.75645 | 22971 ft | 399 kts | 306° |
| 2026-05-04 14:39 | 42.04947 | 19.72500 | 22374 ft | 398 kts | 306° |
| 2026-05-04 14:39 | 42.06410 | 19.69349 | 21775 ft | 393 kts | 306° |
| 2026-05-04 14:40 | 42.09255 | 19.63212 | 20616 ft | 384 kts | 306° |
| 2026-05-04 14:40 | 42.10680 | 19.60134 | 20044 ft | 388 kts | 306° |
| 2026-05-04 14:40 | 42.12095 | 19.57080 | 19456 ft | 386 kts | 306° |
| 2026-05-04 14:40 | 42.13488 | 19.54065 | 18875 ft | 382 kts | 305° |
| 2026-05-04 14:41 | 42.14838 | 19.51120 | 18315 ft | 378 kts | 305° |
| 2026-05-04 14:41 | 42.16231 | 19.48075 | 17735 ft | 374 kts | 305° |
| 2026-05-04 14:41 | 42.18944 | 19.42159 | 16597 ft | 367 kts | 305° |
| 2026-05-04 14:42 | 42.21892 | 19.36788 | 15498 ft | 365 kts | 317° |
| 2026-05-04 14:42 | 42.23758 | 19.34493 | 14886 ft | 360 kts | 324° |
| 2026-05-04 14:42 | 42.25680 | 19.32701 | 14328 ft | 355 kts | 332° |
| 2026-05-04 14:43 | 42.30338 | 19.29767 | 13109 ft | 346 kts | 340° |
| 2026-05-04 14:43 | 42.32460 | 19.28301 | 12461 ft | 349 kts | 323° |
| 2026-05-04 14:43 | 42.34038 | 19.25768 | 11526 ft | 361 kts | 298° |
| 2026-05-04 14:44 | 42.34672 | 19.22516 | 10673 ft | 367 kts | 271° |
| 2026-05-04 14:44 | 42.34187 | 19.19133 | 9989 ft | 364 kts | 244° |
| 2026-05-04 14:44 | 42.32689 | 19.16546 | 9821 ft | 343 kts | 218° |
| 2026-05-04 14:44 | 42.30841 | 19.14648 | 9747 ft | 325 kts | 216° |
| 2026-05-04 14:45 | 42.29111 | 19.12796 | 9630 ft | 311 kts | 219° |
| 2026-05-04 14:45 | 42.27510 | 19.10910 | 9435 ft | 302 kts | 221° |
| 2026-05-04 14:45 | 42.25971 | 19.08995 | 9004 ft | 302 kts | 222° |
| 2026-05-04 14:45 | 42.24442 | 19.07049 | 8505 ft | 303 kts | 224° |
| 2026-05-04 14:46 | 42.22869 | 19.05123 | 8124 ft | 300 kts | 223° |
| 2026-05-04 14:46 | 42.21336 | 19.03243 | 7745 ft | 296 kts | 225° |
| 2026-05-04 14:46 | 42.19855 | 19.01350 | 7380 ft | 292 kts | 226° |
| 2026-05-04 14:46 | 42.18417 | 18.99475 | 7021 ft | 282 kts | 226° |
| 2026-05-04 14:47 | 42.17034 | 18.97654 | 6731 ft | 268 kts | 226° |
| 2026-05-04 14:47 | 42.15736 | 18.95935 | 6522 ft | 254 kts | 226° |
| 2026-05-04 14:47 | 42.14507 | 18.94315 | 6387 ft | 238 kts | 226° |
| 2026-05-04 14:47 | 42.13316 | 18.92763 | 6117 ft | 231 kts | 224° |
| 2026-05-04 14:48 | 42.11931 | 18.91728 | 6003 ft | 226 kts | 192° |
| 2026-05-04 14:48 | 42.10331 | 18.91836 | 6029 ft | 232 kts | 167° |
| 2026-05-04 14:48 | 42.08773 | 18.92513 | 6059 ft | 236 kts | 161° |
| 2026-05-04 14:48 | 42.07209 | 18.93120 | 6026 ft | 231 kts | 181° |
| 2026-05-04 14:49 | 42.05727 | 18.92505 | 6039 ft | 222 kts | 222° |
| 2026-05-04 14:49 | 42.04945 | 18.90818 | 6039 ft | 218 kts | 263° |
| 2026-05-04 14:49 | 42.05183 | 18.88847 | 6013 ft | 217 kts | 298° |
| 2026-05-04 14:49 | 42.06097 | 18.87244 | 5964 ft | 207 kts | 315° |
| 2026-05-04 14:50 | 42.06563 | 18.86668 | 5933 ft | 199 kts | 319° |
| 2026-05-04 14:50 | 42.07608 | 18.85598 | 5843 ft | 184 kts | 324° |
| 2026-05-04 14:50 | 42.08686 | 18.84730 | 5838 ft | 176 kts | 332° |
| 2026-05-04 14:50 | 42.09806 | 18.84025 | 5774 ft | 181 kts | 338° |
| 2026-05-04 14:51 | 42.11069 | 18.83859 | 5702 ft | 183 kts | 5° |
| 2026-05-04 14:51 | 42.12291 | 18.84160 | 5673 ft | 182 kts | 10° |
| 2026-05-04 14:51 | 42.13530 | 18.84544 | 5580 ft | 184 kts | 11° |
| 2026-05-04 14:51 | 42.14775 | 18.84942 | 5440 ft | 186 kts | 11° |
| 2026-05-04 14:52 | 42.16040 | 18.85332 | 5253 ft | 183 kts | 5° |
| 2026-05-04 14:52 | 42.17264 | 18.85265 | 5070 ft | 172 kts | 346° |
| 2026-05-04 14:52 | 42.18406 | 18.84865 | 4896 ft | 170 kts | 340° |
| 2026-05-04 14:52 | 42.19518 | 18.84381 | 4656 ft | 168 kts | 340° |
| 2026-05-04 14:53 | 42.20565 | 18.83894 | 4317 ft | 152 kts | 339° |
| 2026-05-04 14:53 | 42.21541 | 18.83416 | 4025 ft | 146 kts | 338° |
| 2026-05-04 14:53 | 42.22478 | 18.82945 | 3853 ft | 147 kts | 337° |
| 2026-05-04 14:53 | 42.23448 | 18.82453 | 3603 ft | 152 kts | 337° |
| 2026-05-04 14:54 | 42.24433 | 18.81950 | 3275 ft | 147 kts | 338° |
| 2026-05-04 14:54 | 42.25398 | 18.81457 | 3112 ft | 151 kts | 336° |
| 2026-05-04 14:54 | 42.26364 | 18.80965 | 3032 ft | 148 kts | 339° |
| 2026-05-04 14:54 | 42.27348 | 18.80515 | 2855 ft | 152 kts | 341° |
| 2026-05-04 14:55 | 42.28361 | 18.80105 | 2669 ft | 157 kts | 342° |
| 2026-05-04 14:55 | 42.29436 | 18.79747 | 2489 ft | 160 kts | 346° |
| 2026-05-04 14:55 | 42.30515 | 18.79445 | 2338 ft | 157 kts | 348° |
| 2026-05-04 14:55 | 42.31590 | 18.79174 | 2142 ft | 157 kts | 347° |
| 2026-05-04 14:56 | 42.32650 | 18.78876 | 2010 ft | 153 kts | 345° |
| 2026-05-04 14:56 | 42.33664 | 18.78501 | 1750 ft | 149 kts | 341° |
| 2026-05-04 14:56 | 42.34640 | 18.78078 | 1531 ft | 148 kts | 339° |
| 2026-05-04 14:56 | 42.35612 | 18.77561 | 1250 ft | 151 kts | 333° |
| 2026-05-04 14:57 | 42.36509 | 18.76891 | 1026 ft | 148 kts | 325° |
| 2026-05-04 14:57 | 42.37325 | 18.76037 | 729 ft | 148 kts | 317° |
| 2026-05-04 14:57 | 42.38094 | 18.75136 | 485 ft | 142 kts | 316° |
| 2026-05-04 14:57 | 42.38825 | 18.74262 | 266 ft | 137 kts | 317° |
| 2026-05-04 14:58 | 42.39550 | 18.73412 | 68 ft | 137 kts | 316° |
| 2026-05-04 14:58 | 42.40218 | 18.72620 | 17 ft | 107 kts | 319° |
| 2026-05-04 14:58 | 42.40643 | 18.72118 | 19 ft | 58 kts | 320° |
| 2026-05-04 14:58 | 42.40888 | 18.71828 | 16 ft | 41 kts | 319° |
| 2026-05-04 14:59 | 42.41091 | 18.71595 | 11 ft | 35 kts | 320° |
| 2026-05-04 14:59 | 42.41266 | 18.71388 | 9 ft | 26 kts | 318° |
| 2026-05-04 14:59 | 42.41316 | 18.71512 | 9 ft | 16 kts | 142° |
| 2026-05-04 15:00 | 42.41256 | 18.71593 | 11 ft | 7 kts | 89° |
| 2026-05-04 15:00 | 42.41267 | 18.71633 | 12 ft | 4 kts | 94° |
| 2026-05-04 15:00 | 42.41256 | 18.71649 | 12 ft | 0 kts | 171° |